createdAt,value
2024-01-16T00:03:48.248Z,89.94
2024-01-16T00:08:49.937Z,90.46
2024-01-16T00:13:51.609Z,90.73
2024-01-16T00:18:53.337Z,89.92
2024-01-16T00:23:54.985Z,92.60
2024-01-16T00:28:56.573Z,93.36
2024-01-16T00:33:58.289Z,92.53
2024-01-16T00:39:00.052Z,91.59
2024-01-16T00:44:01.746Z,90.90
2024-01-16T00:49:03.512Z,92.42
2024-01-16T00:54:07.446Z,91.38
2024-01-16T00:59:09.069Z,91.12
2024-01-16T01:04:10.837Z,91.53
2024-01-16T01:09:12.947Z,91.58
2024-01-16T01:14:15.069Z,91.92
2024-01-16T01:19:16.795Z,90.57
2024-01-16T01:24:18.453Z,91.45
2024-01-16T01:29:20.144Z,91.18
2024-01-16T01:34:22.067Z,90.86
2024-01-16T01:39:23.760Z,90.16
2024-01-16T01:44:26.255Z,89.64
2024-01-16T01:49:28.733Z,90.41
2024-01-16T01:54:31.912Z,90.07
2024-01-16T01:59:34.181Z,89.84
2024-01-16T02:04:37.227Z,89.16
2024-01-16T02:09:39.152Z,88.23
2024-01-16T02:14:40.980Z,88.32
2024-01-16T02:19:42.788Z,88.93
2024-01-16T02:24:44.498Z,89.38
2024-01-16T02:29:46.497Z,88.25
2024-01-16T02:34:48.295Z,88.34
2024-01-16T02:39:49.935Z,88.37
2024-01-16T02:44:51.638Z,88.16
2024-01-16T02:49:53.946Z,88.05
2024-01-16T02:54:55.549Z,87.57
2024-01-16T02:59:57.461Z,87.41
2024-01-16T03:04:59.097Z,87.68
2024-01-16T03:10:00.738Z,88.56
2024-01-16T03:15:02.426Z,89.80
2024-01-16T03:20:04.797Z,89.73
2024-01-16T03:25:08.717Z,89.53
2024-01-16T03:30:11.049Z,89.31
2024-01-16T03:35:12.858Z,88.52
2024-01-16T03:40:14.650Z,88.48
2024-01-16T03:45:17.891Z,89.48
2024-01-16T03:50:19.818Z,89.66
2024-01-16T03:55:22.180Z,89.79
2024-01-16T04:00:23.848Z,89.92
2024-01-16T04:05:25.612Z,89.70
2024-01-16T04:10:27.412Z,89.50
2024-01-16T04:15:29.655Z,88.86
2024-01-16T04:20:31.467Z,89.32
2024-01-16T04:25:33.118Z,90.04
2024-01-16T04:30:34.790Z,89.84
2024-01-16T04:35:36.567Z,90.22
2024-01-16T04:40:38.273Z,89.73
2024-01-16T04:45:39.918Z,90.13
2024-01-16T04:50:41.545Z,89.62
2024-01-16T04:55:43.181Z,89.73
2024-01-16T05:00:44.831Z,90.84
2024-01-16T05:05:46.597Z,90.58
2024-01-16T05:10:48.232Z,90.17
2024-01-16T05:15:49.991Z,90.69
2024-01-16T05:20:51.760Z,90.26
2024-01-16T05:25:53.420Z,90.33
2024-01-16T05:30:55.034Z,90.15
2024-01-16T05:35:58.795Z,89.80
2024-01-16T05:41:00.443Z,89.83
2024-01-16T05:46:02.089Z,89.91
2024-01-16T05:51:03.950Z,89.81
2024-01-16T05:56:05.989Z,89.97
2024-01-16T06:01:07.720Z,90.23
2024-01-16T06:06:09.432Z,88.39
2024-01-16T06:11:14.393Z,89.28
2024-01-16T06:16:17.630Z,88.95
2024-01-16T06:21:21.134Z,87.37
2024-01-16T06:26:24.362Z,89.22
2024-01-16T06:31:27.436Z,87.86
2024-01-16T06:36:29.205Z,88.69
2024-01-16T06:41:30.892Z,89.06
2024-01-16T06:46:32.664Z,87.84
2024-01-16T06:51:34.322Z,88.65
2024-01-16T06:56:35.965Z,88.41
2024-01-16T07:01:37.618Z,87.87
2024-01-16T07:06:39.300Z,88.11
2024-01-16T07:11:44.236Z,87.98
2024-01-16T07:16:46.277Z,88.13
2024-01-16T07:21:47.876Z,88.48
2024-01-16T07:26:49.640Z,87.22
2024-01-16T07:31:51.782Z,89.07
2024-01-16T07:36:53.485Z,89.58
2024-01-16T07:41:55.205Z,89.58
2024-01-16T07:46:56.865Z,89.17
2024-01-16T07:51:58.481Z,89.13
2024-01-16T07:57:00.683Z,88.43
2024-01-16T08:02:02.333Z,87.46
2024-01-16T08:07:04.361Z,86.25
2024-01-16T08:12:07.094Z,86.17
2024-01-16T08:17:09.401Z,86.86
2024-01-16T08:22:11.125Z,84.97
2024-01-16T08:27:13.466Z,86.36
2024-01-16T08:32:15.116Z,86.20
2024-01-16T08:37:16.775Z,87.56
2024-01-16T08:42:19.327Z,87.73
2024-01-16T08:47:21.045Z,86.68
2024-01-16T08:52:22.775Z,86.71
2024-01-16T08:57:25.522Z,85.64
2024-01-16T09:02:30.323Z,82.00
2024-01-16T09:07:32.141Z,81.93
2024-01-16T09:12:34.531Z,83.58
2024-01-16T09:17:36.346Z,82.54
2024-01-16T09:22:38.035Z,83.20
2024-01-16T09:27:39.703Z,83.12
2024-01-16T09:32:41.850Z,83.96
2024-01-16T09:37:43.496Z,83.06
2024-01-16T09:42:45.973Z,82.80
2024-01-16T09:47:51.738Z,82.92
2024-01-16T09:52:56.801Z,83.17
2024-01-16T09:58:01.667Z,82.84
2024-01-16T10:03:05.768Z,81.86
2024-01-16T10:08:09.331Z,82.51
2024-01-16T10:13:11.096Z,81.52
2024-01-16T10:18:31.905Z,81.85
2024-01-16T10:23:34.263Z,82.10
2024-01-16T10:28:37.227Z,82.44
2024-01-16T10:33:40.631Z,82.84
2024-01-16T10:38:44.932Z,82.46
2024-01-16T10:43:46.745Z,81.62
2024-01-16T10:49:01.646Z,82.15
2024-01-16T10:54:07.158Z,81.88
2024-01-16T10:59:20.091Z,79.82
2024-01-16T11:04:22.379Z,81.65
2024-01-16T11:09:24.914Z,81.65
2024-01-16T11:14:27.345Z,81.31
2024-01-16T11:19:38.962Z,82.73
2024-01-16T11:25:13.200Z,82.10
2024-01-16T11:30:31.489Z,81.47
2024-01-16T11:35:43.831Z,80.64
2024-01-16T11:40:45.525Z,79.60
2024-01-16T11:45:50.881Z,82.10
2024-01-16T11:50:53.931Z,80.62
2024-01-16T11:56:33.845Z,79.31
2024-01-16T12:01:43.047Z,77.73
2024-01-16T12:06:44.814Z,79.21
2024-01-16T12:12:05.736Z,80.51
2024-01-16T12:17:15.036Z,78.80
2024-01-16T12:22:17.735Z,80.39
2024-01-16T12:27:19.362Z,78.57
2024-01-16T12:32:22.555Z,79.86
2024-01-16T12:37:24.270Z,77.73
2024-01-16T12:42:26.192Z,78.94
2024-01-16T12:47:27.988Z,78.42
2024-01-16T12:52:31.106Z,80.23
2024-01-16T12:57:32.778Z,79.22
2024-01-16T13:02:34.953Z,80.16
2024-01-16T13:07:36.835Z,80.09
2024-01-16T13:12:39.005Z,80.45
2024-01-16T13:17:40.847Z,80.66
2024-01-16T13:22:45.372Z,79.38
2024-01-16T13:27:49.508Z,80.13
2024-01-16T13:32:51.273Z,79.03
2024-01-16T13:37:52.976Z,79.68
2024-01-16T13:42:54.570Z,79.02
2024-01-16T13:47:57.047Z,79.06
2024-01-16T13:52:58.829Z,79.71
2024-01-16T13:58:00.968Z,79.73
2024-01-16T14:03:04.747Z,80.36
2024-01-16T14:08:06.725Z,81.27
2024-01-16T14:13:08.368Z,81.90
2024-01-16T14:18:10.454Z,82.25
2024-01-16T14:23:13.700Z,81.85
2024-01-16T14:28:21.143Z,83.16
2024-01-16T14:33:28.586Z,83.50
2024-01-16T14:38:30.345Z,84.46
2024-01-16T14:43:32.072Z,85.04
2024-01-16T14:48:33.807Z,84.14
2024-01-16T14:53:35.521Z,84.35
2024-01-16T14:58:37.122Z,84.03
2024-01-16T15:03:39.666Z,83.57
2024-01-16T15:08:41.383Z,83.98
2024-01-16T15:13:43.009Z,84.54
2024-01-16T15:18:45.055Z,84.64
2024-01-16T15:23:47.421Z,84.31
2024-01-16T15:28:50.504Z,84.27
2024-01-16T15:33:53.064Z,83.93
2024-01-16T15:38:54.796Z,83.66
2024-01-16T15:43:58.034Z,83.61
2024-01-16T15:48:59.812Z,83.42
2024-01-16T15:54:01.501Z,84.52
2024-01-16T15:59:03.172Z,84.16
2024-01-16T16:04:05.796Z,85.31
2024-01-16T16:09:08.978Z,84.97
2024-01-16T16:14:10.821Z,85.43
2024-01-16T16:19:12.789Z,85.00
2024-01-16T16:24:14.592Z,84.69
2024-01-16T16:29:16.566Z,84.77
2024-01-16T16:34:20.213Z,84.79
2024-01-16T16:39:23.718Z,84.71
2024-01-16T16:44:25.413Z,84.66
2024-01-16T16:49:27.153Z,84.64
2024-01-16T16:54:31.105Z,84.89
2024-01-16T16:59:32.826Z,84.77
2024-01-16T17:04:34.804Z,86.34
2024-01-16T17:09:36.592Z,86.40
2024-01-16T17:14:38.455Z,85.56
2024-01-16T17:19:41.611Z,86.29
2024-01-16T17:24:43.636Z,86.17
2024-01-16T17:29:46.309Z,86.35
2024-01-16T17:34:48.053Z,86.80
2024-01-16T17:39:51.224Z,86.39
2024-01-16T17:44:52.977Z,86.08
2024-01-16T17:49:54.684Z,85.77
2024-01-16T17:54:56.282Z,85.38
2024-01-16T17:59:57.961Z,85.00
2024-01-16T18:04:59.612Z,85.06
2024-01-16T18:10:01.194Z,85.60
2024-01-16T18:15:02.872Z,85.82
2024-01-16T18:20:10.690Z,84.57
2024-01-16T18:25:15.176Z,85.00
2024-01-16T18:30:17.146Z,84.79
2024-01-16T18:35:19.860Z,84.37
2024-01-16T18:40:23.666Z,84.05
2024-01-16T18:45:25.466Z,83.53
2024-01-16T18:50:27.507Z,81.08
2024-01-16T18:55:29.383Z,82.40
2024-01-16T19:00:30.990Z,82.97
2024-01-16T19:05:35.797Z,83.30
2024-01-16T19:10:37.561Z,83.37
2024-01-16T19:15:39.190Z,82.77
2024-01-16T19:20:41.264Z,83.02
2024-01-16T19:25:42.911Z,82.51
2024-01-16T19:30:44.880Z,82.04
2024-01-16T19:35:50.647Z,82.12
2024-01-16T19:40:53.172Z,82.62
2024-01-16T19:45:54.797Z,82.68
2024-01-16T19:50:56.714Z,82.57
2024-01-16T19:56:00.230Z,81.54
2024-01-16T20:01:04.011Z,82.06
2024-01-16T20:06:05.931Z,82.26
2024-01-16T20:11:07.564Z,82.62
2024-01-16T20:16:09.284Z,83.20
2024-01-16T20:21:10.959Z,82.76
2024-01-16T20:26:13.279Z,83.11
2024-01-16T20:31:15.087Z,82.95
2024-01-16T20:36:17.763Z,82.27
2024-01-16T20:41:19.465Z,81.57
2024-01-16T20:46:21.127Z,81.43
2024-01-16T20:51:23.279Z,82.08
2024-01-16T20:56:24.912Z,81.71
2024-01-16T21:01:26.525Z,81.44
2024-01-16T21:06:28.529Z,81.41
2024-01-16T21:11:30.297Z,81.39
2024-01-16T21:16:32.991Z,80.96
2024-01-16T21:21:34.705Z,81.46
2024-01-16T21:26:36.392Z,81.28
2024-01-16T21:31:49.827Z,81.16
2024-01-16T21:36:53.945Z,81.32
2024-01-16T21:41:55.666Z,81.40
2024-01-16T21:46:57.345Z,80.65
2024-01-16T21:51:59.839Z,81.41
2024-01-16T21:57:01.491Z,80.93
2024-01-16T22:02:03.201Z,80.95
2024-01-16T22:07:04.918Z,80.45
2024-01-16T22:12:09.798Z,81.01
2024-01-16T22:17:11.561Z,81.11
2024-01-16T22:22:13.170Z,81.52
2024-01-16T22:27:14.770Z,80.84
2024-01-16T22:32:16.368Z,81.34
2024-01-16T22:37:19.038Z,81.56
2024-01-16T22:42:21.796Z,81.32
2024-01-16T22:47:23.560Z,81.16
2024-01-16T22:52:27.633Z,80.52
2024-01-16T22:57:29.275Z,80.78
2024-01-16T23:02:30.936Z,79.84
2024-01-16T23:07:32.526Z,80.27
2024-01-16T23:12:34.194Z,80.05
2024-01-16T23:17:36.102Z,80.63
2024-01-16T23:22:56.492Z,80.83
2024-01-16T23:27:58.104Z,80.61
2024-01-16T23:33:00.787Z,81.18
2024-01-16T23:38:02.731Z,80.42
2024-01-16T23:43:04.604Z,80.37
2024-01-16T23:48:06.613Z,80.14
2024-01-16T23:53:08.343Z,79.96
2024-01-16T23:58:10.293Z,79.91
